sensor_id;sensor_type;location;lat;lon;timestamp;temperature;humidity
25112;DHT22;13092;51.996;4.458;2024-03-07T00:01:26;7.70;99.90
25112;DHT22;13092;51.996;4.458;2024-03-07T00:03:54;7.30;99.90
25112;DHT22;13092;51.996;4.458;2024-03-07T00:06:22;7.20;99.90
25112;DHT22;13092;51.996;4.458;2024-03-07T00:08:52;7.30;99.90
25112;DHT22;13092;51.996;4.458;2024-03-07T00:11:22;7.50;99.90
25112;DHT22;13092;51.996;4.458;2024-03-07T00:13:50;7.50;99.90
25112;DHT22;13092;51.996;4.458;2024-03-07T00:16:18;7.10;99.90
25112;DHT22;13092;51.996;4.458;2024-03-07T00:18:46;7.00;99.90
25112;DHT22;13092;51.996;4.458;2024-03-07T00:21:14;6.80;99.90
25112;DHT22;13092;51.996;4.458;2024-03-07T00:23:43;6.80;99.90
25112;DHT22;13092;51.996;4.458;2024-03-07T00:26:12;6.80;99.90
25112;DHT22;13092;51.996;4.458;2024-03-07T00:28:40;7.50;99.90
25112;DHT22;13092;51.996;4.458;2024-03-07T00:31:09;6.60;99.90
25112;DHT22;13092;51.996;4.458;2024-03-07T00:33:37;6.60;99.90
25112;DHT22;13092;51.996;4.458;2024-03-07T00:36:26;6.60;99.90
25112;DHT22;13092;51.996;4.458;2024-03-07T00:38:54;6.60;99.90
25112;DHT22;13092;51.996;4.458;2024-03-07T00:41:23;6.60;99.90
25112;DHT22;13092;51.996;4.458;2024-03-07T00:43:53;6.70;99.90
25112;DHT22;13092;51.996;4.458;2024-03-07T00:46:21;6.50;99.90
25112;DHT22;13092;51.996;4.458;2024-03-07T00:48:49;6.50;99.90
25112;DHT22;13092;51.996;4.458;2024-03-07T00:51:18;6.70;99.90
25112;DHT22;13092;51.996;4.458;2024-03-07T00:53:46;6.50;99.90
25112;DHT22;13092;51.996;4.458;2024-03-07T00:56:15;6.40;99.90
25112;DHT22;13092;51.996;4.458;2024-03-07T00:58:45;6.40;99.90
25112;DHT22;13092;51.996;4.458;2024-03-07T01:01:13;6.60;99.90
25112;DHT22;13092;51.996;4.458;2024-03-07T01:03:42;6.50;99.90
25112;DHT22;13092;51.996;4.458;2024-03-07T01:06:10;6.90;99.90
25112;DHT22;13092;51.996;4.458;2024-03-07T01:08:39;6.40;99.90
25112;DHT22;13092;51.996;4.458;2024-03-07T01:11:07;6.50;99.90
25112;DHT22;13092;51.996;4.458;2024-03-07T01:13:39;6.30;99.90
25112;DHT22;13092;51.996;4.458;2024-03-07T01:16:09;6.50;99.90
25112;DHT22;13092;51.996;4.458;2024-03-07T01:18:38;6.50;99.90
25112;DHT22;13092;51.996;4.458;2024-03-07T01:21:06;6.40;99.90
25112;DHT22;13092;51.996;4.458;2024-03-07T01:23:35;6.30;99.90
25112;DHT22;13092;51.996;4.458;2024-03-07T01:26:03;6.30;99.90
25112;DHT22;13092;51.996;4.458;2024-03-07T01:28:31;7.00;99.90
25112;DHT22;13092;51.996;4.458;2024-03-07T01:30:59;6.50;99.90
25112;DHT22;13092;51.996;4.458;2024-03-07T01:33:29;6.50;99.90
25112;DHT22;13092;51.996;4.458;2024-03-07T01:35:57;6.60;99.90
25112;DHT22;13092;51.996;4.458;2024-03-07T01:38:25;6.20;99.90
25112;DHT22;13092;51.996;4.458;2024-03-07T01:40:53;6.50;99.90
25112;DHT22;13092;51.996;4.458;2024-03-07T01:43:22;6.20;99.90
25112;DHT22;13092;51.996;4.458;2024-03-07T01:45:54;6.30;99.90
25112;DHT22;13092;51.996;4.458;2024-03-07T01:48:26;6.20;99.90
25112;DHT22;13092;51.996;4.458;2024-03-07T01:50:57;6.10;99.90
25112;DHT22;13092;51.996;4.458;2024-03-07T01:53:27;6.50;99.90
25112;DHT22;13092;51.996;4.458;2024-03-07T01:55:56;6.10;99.90
25112;DHT22;13092;51.996;4.458;2024-03-07T01:58:25;6.00;99.90
25112;DHT22;13092;51.996;4.458;2024-03-07T02:00:53;6.00;99.90
25112;DHT22;13092;51.996;4.458;2024-03-07T02:03:21;6.10;99.90
25112;DHT22;13092;51.996;4.458;2024-03-07T02:05:49;6.40;99.90
25112;DHT22;13092;51.996;4.458;2024-03-07T02:08:20;6.30;99.90
25112;DHT22;13092;51.996;4.458;2024-03-07T02:10:48;5.90;99.90
25112;DHT22;13092;51.996;4.458;2024-03-07T02:13:17;6.60;99.90
25112;DHT22;13092;51.996;4.458;2024-03-07T02:15:45;5.80;99.90
25112;DHT22;13092;51.996;4.458;2024-03-07T02:18:14;5.80;99.90
25112;DHT22;13092;51.996;4.458;2024-03-07T02:20:45;6.60;99.90
25112;DHT22;13092;51.996;4.458;2024-03-07T02:23:14;6.00;99.90
25112;DHT22;13092;51.996;4.458;2024-03-07T02:25:42;6.10;99.90
25112;DHT22;13092;51.996;4.458;2024-03-07T02:28:11;5.70;99.90
25112;DHT22;13092;51.996;4.458;2024-03-07T02:30:39;5.70;99.90
25112;DHT22;13092;51.996;4.458;2024-03-07T02:33:08;5.80;99.90
25112;DHT22;13092;51.996;4.458;2024-03-07T02:35:37;5.60;99.90
25112;DHT22;13092;51.996;4.458;2024-03-07T02:38:06;6.20;99.90
25112;DHT22;13092;51.996;4.458;2024-03-07T02:40:35;6.10;99.90
25112;DHT22;13092;51.996;4.458;2024-03-07T02:43:03;5.60;99.90
25112;DHT22;13092;51.996;4.458;2024-03-07T02:45:34;5.60;99.90
25112;DHT22;13092;51.996;4.458;2024-03-07T02:48:03;5.60;99.90
25112;DHT22;13092;51.996;4.458;2024-03-07T02:50:32;5.50;99.90
25112;DHT22;13092;51.996;4.458;2024-03-07T02:53:01;5.20;99.90
25112;DHT22;13092;51.996;4.458;2024-03-07T02:55:32;5.50;99.90
25112;DHT22;13092;51.996;4.458;2024-03-07T02:58:01;5.50;99.90
25112;DHT22;13092;51.996;4.458;2024-03-07T03:00:29;5.60;99.90
25112;DHT22;13092;51.996;4.458;2024-03-07T03:02:57;5.50;99.90
25112;DHT22;13092;51.996;4.458;2024-03-07T03:05:26;5.60;99.90
25112;DHT22;13092;51.996;4.458;2024-03-07T03:07:54;5.50;99.90
25112;DHT22;13092;51.996;4.458;2024-03-07T03:10:24;5.40;99.90
25112;DHT22;13092;51.996;4.458;2024-03-07T03:12:58;5.30;99.90
25112;DHT22;13092;51.996;4.458;2024-03-07T03:15:28;5.70;99.90
25112;DHT22;13092;51.996;4.458;2024-03-07T03:17:57;5.30;99.90
25112;DHT22;13092;51.996;4.458;2024-03-07T03:20:28;5.50;99.90
25112;DHT22;13092;51.996;4.458;2024-03-07T03:23:03;5.50;99.90
25112;DHT22;13092;51.996;4.458;2024-03-07T03:25:46;5.30;99.90
25112;DHT22;13092;51.996;4.458;2024-03-07T03:28:18;5.30;99.90
25112;DHT22;13092;51.996;4.458;2024-03-07T03:30:48;5.30;99.90
25112;DHT22;13092;51.996;4.458;2024-03-07T03:33:17;5.30;99.90
25112;DHT22;13092;51.996;4.458;2024-03-07T03:35:45;5.60;99.90
25112;DHT22;13092;51.996;4.458;2024-03-07T03:38:14;5.60;99.90
25112;DHT22;13092;51.996;4.458;2024-03-07T03:40:43;5.20;99.90
25112;DHT22;13092;51.996;4.458;2024-03-07T03:43:11;5.40;99.90
25112;DHT22;13092;51.996;4.458;2024-03-07T03:45:41;6.10;99.90
25112;DHT22;13092;51.996;4.458;2024-03-07T03:48:09;6.10;99.90
25112;DHT22;13092;51.996;4.458;2024-03-07T03:50:37;5.70;99.90
25112;DHT22;13092;51.996;4.458;2024-03-07T03:53:05;5.30;99.90
25112;DHT22;13092;51.996;4.458;2024-03-07T03:55:34;5.40;99.90
25112;DHT22;13092;51.996;4.458;2024-03-07T03:58:03;5.00;99.90
25112;DHT22;13092;51.996;4.458;2024-03-07T04:00:32;5.60;99.90
25112;DHT22;13092;51.996;4.458;2024-03-07T04:03:02;5.30;99.90
25112;DHT22;13092;51.996;4.458;2024-03-07T04:05:30;5.30;99.90
25112;DHT22;13092;51.996;4.458;2024-03-07T04:07:59;5.20;99.90
25112;DHT22;13092;51.996;4.458;2024-03-07T04:10:27;6.10;99.90
25112;DHT22;13092;51.996;4.458;2024-03-07T04:12:55;5.20;99.90
25112;DHT22;13092;51.996;4.458;2024-03-07T04:15:24;5.20;99.90
25112;DHT22;13092;51.996;4.458;2024-03-07T04:17:53;5.20;99.90
25112;DHT22;13092;51.996;4.458;2024-03-07T04:20:24;5.20;99.90
25112;DHT22;13092;51.996;4.458;2024-03-07T04:22:52;5.20;99.90
25112;DHT22;13092;51.996;4.458;2024-03-07T04:25:22;5.20;99.90
25112;DHT22;13092;51.996;4.458;2024-03-07T04:27:51;5.20;99.90
25112;DHT22;13092;51.996;4.458;2024-03-07T04:30:20;5.40;99.90
25112;DHT22;13092;51.996;4.458;2024-03-07T04:32:48;5.50;99.90
25112;DHT22;13092;51.996;4.458;2024-03-07T04:35:17;5.70;99.90
25112;DHT22;13092;51.996;4.458;2024-03-07T04:37:47;6.00;99.90
25112;DHT22;13092;51.996;4.458;2024-03-07T04:40:16;5.60;99.90
25112;DHT22;13092;51.996;4.458;2024-03-07T04:42:46;5.30;99.90
25112;DHT22;13092;51.996;4.458;2024-03-07T04:45:16;6.00;99.90
25112;DHT22;13092;51.996;4.458;2024-03-07T04:47:45;5.40;99.90
25112;DHT22;13092;51.996;4.458;2024-03-07T04:50:15;5.40;99.90
25112;DHT22;13092;51.996;4.458;2024-03-07T04:52:47;5.90;99.90
25112;DHT22;13092;51.996;4.458;2024-03-07T04:55:16;5.60;99.90
25112;DHT22;13092;51.996;4.458;2024-03-07T04:57:45;5.50;99.90
25112;DHT22;13092;51.996;4.458;2024-03-07T05:00:14;6.10;99.90
25112;DHT22;13092;51.996;4.458;2024-03-07T05:02:49;5.50;99.90
25112;DHT22;13092;51.996;4.458;2024-03-07T05:05:18;5.60;99.90
25112;DHT22;13092;51.996;4.458;2024-03-07T05:07:52;5.50;99.90
25112;DHT22;13092;51.996;4.458;2024-03-07T05:10:20;6.30;99.90
25112;DHT22;13092;51.996;4.458;2024-03-07T05:12:49;5.70;99.90
25112;DHT22;13092;51.996;4.458;2024-03-07T05:15:17;6.20;99.90
25112;DHT22;13092;51.996;4.458;2024-03-07T05:17:46;5.40;99.90
25112;DHT22;13092;51.996;4.458;2024-03-07T05:20:15;5.30;99.90
25112;DHT22;13092;51.996;4.458;2024-03-07T05:22:43;5.30;99.90
25112;DHT22;13092;51.996;4.458;2024-03-07T05:25:19;5.40;99.90
25112;DHT22;13092;51.996;4.458;2024-03-07T05:27:49;5.20;99.90
25112;DHT22;13092;51.996;4.458;2024-03-07T05:30:18;5.70;99.90
25112;DHT22;13092;51.996;4.458;2024-03-07T05:32:49;5.30;99.90
25112;DHT22;13092;51.996;4.458;2024-03-07T05:35:18;5.30;99.90
25112;DHT22;13092;51.996;4.458;2024-03-07T05:37:48;5.30;99.90
25112;DHT22;13092;51.996;4.458;2024-03-07T05:40:20;5.30;99.90
25112;DHT22;13092;51.996;4.458;2024-03-07T05:42:48;5.20;99.90
25112;DHT22;13092;51.996;4.458;2024-03-07T05:45:16;5.20;99.90
25112;DHT22;13092;51.996;4.458;2024-03-07T05:47:46;5.60;99.90
25112;DHT22;13092;51.996;4.458;2024-03-07T05:50:16;5.10;99.90
25112;DHT22;13092;51.996;4.458;2024-03-07T05:52:45;5.30;99.90
25112;DHT22;13092;51.996;4.458;2024-03-07T05:55:15;5.20;99.90
25112;DHT22;13092;51.996;4.458;2024-03-07T05:57:47;5.30;99.90
25112;DHT22;13092;51.996;4.458;2024-03-07T06:00:16;5.30;99.90
25112;DHT22;13092;51.996;4.458;2024-03-07T06:02:55;5.20;99.90
25112;DHT22;13092;51.996;4.458;2024-03-07T06:05:24;5.30;99.90
25112;DHT22;13092;51.996;4.458;2024-03-07T06:07:54;5.70;99.90
25112;DHT22;13092;51.996;4.458;2024-03-07T06:10:23;5.70;99.90
25112;DHT22;13092;51.996;4.458;2024-03-07T06:12:53;5.30;99.90
25112;DHT22;13092;51.996;4.458;2024-03-07T06:15:36;5.00;99.90
25112;DHT22;13092;51.996;4.458;2024-03-07T06:18:05;5.40;99.90
25112;DHT22;13092;51.996;4.458;2024-03-07T06:20:35;5.10;99.90
25112;DHT22;13092;51.996;4.458;2024-03-07T06:23:04;5.10;99.90
25112;DHT22;13092;51.996;4.458;2024-03-07T06:25:32;5.30;99.90
25112;DHT22;13092;51.996;4.458;2024-03-07T06:28:06;5.20;99.90
25112;DHT22;13092;51.996;4.458;2024-03-07T06:30:39;5.00;99.90
25112;DHT22;13092;51.996;4.458;2024-03-07T06:33:08;5.50;99.90
25112;DHT22;13092;51.996;4.458;2024-03-07T06:35:37;5.60;99.90
25112;DHT22;13092;51.996;4.458;2024-03-07T06:38:06;5.10;99.90
25112;DHT22;13092;51.996;4.458;2024-03-07T06:40:35;5.00;99.90
25112;DHT22;13092;51.996;4.458;2024-03-07T06:43:05;5.10;99.90
25112;DHT22;13092;51.996;4.458;2024-03-07T06:45:34;4.90;99.90
25112;DHT22;13092;51.996;4.458;2024-03-07T06:48:05;5.20;99.90
25112;DHT22;13092;51.996;4.458;2024-03-07T06:50:35;4.90;99.90
25112;DHT22;13092;51.996;4.458;2024-03-07T06:53:05;4.90;99.90
25112;DHT22;13092;51.996;4.458;2024-03-07T06:55:35;5.10;99.90
25112;DHT22;13092;51.996;4.458;2024-03-07T06:58:05;4.90;99.90
25112;DHT22;13092;51.996;4.458;2024-03-07T07:00:34;5.00;99.90
25112;DHT22;13092;51.996;4.458;2024-03-07T07:03:07;4.70;99.90
25112;DHT22;13092;51.996;4.458;2024-03-07T07:05:35;5.10;99.90
25112;DHT22;13092;51.996;4.458;2024-03-07T07:08:06;5.80;99.90
25112;DHT22;13092;51.996;4.458;2024-03-07T07:10:35;5.10;99.90
25112;DHT22;13092;51.996;4.458;2024-03-07T07:13:05;5.10;99.90
25112;DHT22;13092;51.996;4.458;2024-03-07T07:15:33;5.40;99.90
25112;DHT22;13092;51.996;4.458;2024-03-07T07:18:04;5.40;99.90
25112;DHT22;13092;51.996;4.458;2024-03-07T07:20:34;5.30;99.90
25112;DHT22;13092;51.996;4.458;2024-03-07T07:23:03;5.40;99.90
25112;DHT22;13092;51.996;4.458;2024-03-07T07:25:32;5.30;99.90
25112;DHT22;13092;51.996;4.458;2024-03-07T07:28:00;5.40;99.90
25112;DHT22;13092;51.996;4.458;2024-03-07T07:30:33;6.40;99.90
25112;DHT22;13092;51.996;4.458;2024-03-07T07:33:02;5.50;99.90
25112;DHT22;13092;51.996;4.458;2024-03-07T07:35:31;5.50;99.90
25112;DHT22;13092;51.996;4.458;2024-03-07T07:38:01;5.60;99.90
25112;DHT22;13092;51.996;4.458;2024-03-07T07:40:29;5.70;99.90
25112;DHT22;13092;51.996;4.458;2024-03-07T07:42:59;5.90;99.90
25112;DHT22;13092;51.996;4.458;2024-03-07T07:45:29;5.70;99.90
25112;DHT22;13092;51.996;4.458;2024-03-07T07:48:01;5.80;99.90
25112;DHT22;13092;51.996;4.458;2024-03-07T07:50:29;5.90;99.90
25112;DHT22;13092;51.996;4.458;2024-03-07T07:53:01;6.00;99.90
25112;DHT22;13092;51.996;4.458;2024-03-07T07:55:34;5.70;99.90
25112;DHT22;13092;51.996;4.458;2024-03-07T07:58:03;5.80;99.90
25112;DHT22;13092;51.996;4.458;2024-03-07T08:00:31;5.80;99.90
25112;DHT22;13092;51.996;4.458;2024-03-07T08:03:05;6.00;99.90
25112;DHT22;13092;51.996;4.458;2024-03-07T08:05:34;6.00;99.90
25112;DHT22;13092;51.996;4.458;2024-03-07T08:08:04;5.90;99.90
25112;DHT22;13092;51.996;4.458;2024-03-07T08:10:36;6.00;99.90
25112;DHT22;13092;51.996;4.458;2024-03-07T08:13:07;6.10;99.90
25112;DHT22;13092;51.996;4.458;2024-03-07T08:15:37;6.20;99.90
25112;DHT22;13092;51.996;4.458;2024-03-07T08:18:07;6.30;99.90
25112;DHT22;13092;51.996;4.458;2024-03-07T08:20:38;6.40;99.90
25112;DHT22;13092;51.996;4.458;2024-03-07T08:23:08;6.30;99.90
25112;DHT22;13092;51.996;4.458;2024-03-07T08:25:38;6.30;99.90
25112;DHT22;13092;51.996;4.458;2024-03-07T08:28:08;6.50;99.90
25112;DHT22;13092;51.996;4.458;2024-03-07T08:30:36;6.50;99.90
25112;DHT22;13092;51.996;4.458;2024-03-07T08:33:05;6.40;99.90
25112;DHT22;13092;51.996;4.458;2024-03-07T08:35:36;6.60;99.90
25112;DHT22;13092;51.996;4.458;2024-03-07T08:38:07;6.60;99.90
25112;DHT22;13092;51.996;4.458;2024-03-07T08:40:37;6.70;99.90
25112;DHT22;13092;51.996;4.458;2024-03-07T08:43:05;6.50;99.90
25112;DHT22;13092;51.996;4.458;2024-03-07T08:45:37;6.90;99.90
25112;DHT22;13092;51.996;4.458;2024-03-07T08:48:05;7.00;99.90
25112;DHT22;13092;51.996;4.458;2024-03-07T08:50:40;6.90;99.90
25112;DHT22;13092;51.996;4.458;2024-03-07T08:53:09;7.00;99.90
25112;DHT22;13092;51.996;4.458;2024-03-07T08:55:37;7.10;99.90
25112;DHT22;13092;51.996;4.458;2024-03-07T08:58:15;7.10;99.90
25112;DHT22;13092;51.996;4.458;2024-03-07T09:00:56;7.10;99.90
25112;DHT22;13092;51.996;4.458;2024-03-07T09:03:30;7.30;99.90
25112;DHT22;13092;51.996;4.458;2024-03-07T09:06:02;7.30;99.90
25112;DHT22;13092;51.996;4.458;2024-03-07T09:08:32;7.20;99.90
25112;DHT22;13092;51.996;4.458;2024-03-07T09:11:00;7.50;99.90
25112;DHT22;13092;51.996;4.458;2024-03-07T09:13:29;7.40;99.90
25112;DHT22;13092;51.996;4.458;2024-03-07T09:16:07;7.60;99.90
25112;DHT22;13092;51.996;4.458;2024-03-07T09:18:35;7.60;99.90
25112;DHT22;13092;51.996;4.458;2024-03-07T09:21:05;7.60;99.90
25112;DHT22;13092;51.996;4.458;2024-03-07T09:23:34;7.60;99.90
25112;DHT22;13092;51.996;4.458;2024-03-07T09:26:02;7.60;99.90
25112;DHT22;13092;51.996;4.458;2024-03-07T09:28:34;7.70;99.90
25112;DHT22;13092;51.996;4.458;2024-03-07T09:31:04;7.70;99.90
25112;DHT22;13092;51.996;4.458;2024-03-07T09:33:32;7.70;99.90
25112;DHT22;13092;51.996;4.458;2024-03-07T09:36:03;7.80;99.90
25112;DHT22;13092;51.996;4.458;2024-03-07T09:39:15;7.90;99.90
25112;DHT22;13092;51.996;4.458;2024-03-07T09:41:45;7.80;99.90
25112;DHT22;13092;51.996;4.458;2024-03-07T09:44:15;7.90;99.90
25112;DHT22;13092;51.996;4.458;2024-03-07T09:46:50;8.00;99.90
25112;DHT22;13092;51.996;4.458;2024-03-07T09:49:26;8.00;99.90
25112;DHT22;13092;51.996;4.458;2024-03-07T09:52:26;8.30;99.90
25112;DHT22;13092;51.996;4.458;2024-03-07T09:55:11;8.10;99.90
25112;DHT22;13092;51.996;4.458;2024-03-07T09:57:41;8.00;99.90
25112;DHT22;13092;51.996;4.458;2024-03-07T10:00:11;8.10;99.90
25112;DHT22;13092;51.996;4.458;2024-03-07T10:02:54;8.10;99.90
25112;DHT22;13092;51.996;4.458;2024-03-07T10:05:25;8.00;99.90
25112;DHT22;13092;51.996;4.458;2024-03-07T10:07:55;8.20;99.90
25112;DHT22;13092;51.996;4.458;2024-03-07T10:10:24;8.30;99.90
25112;DHT22;13092;51.996;4.458;2024-03-07T10:12:53;8.20;99.90
25112;DHT22;13092;51.996;4.458;2024-03-07T10:15:27;8.70;99.90
25112;DHT22;13092;51.996;4.458;2024-03-07T10:17:56;8.40;99.90
25112;DHT22;13092;51.996;4.458;2024-03-07T10:20:30;8.40;99.90
25112;DHT22;13092;51.996;4.458;2024-03-07T10:22:58;8.40;99.90
25112;DHT22;13092;51.996;4.458;2024-03-07T10:25:31;8.50;99.90
25112;DHT22;13092;51.996;4.458;2024-03-07T10:28:03;8.50;99.90
25112;DHT22;13092;51.996;4.458;2024-03-07T10:30:41;8.50;99.90
25112;DHT22;13092;51.996;4.458;2024-03-07T10:33:12;8.70;99.90
25112;DHT22;13092;51.996;4.458;2024-03-07T10:35:42;8.80;99.90
25112;DHT22;13092;51.996;4.458;2024-03-07T10:38:12;8.60;99.90
25112;DHT22;13092;51.996;4.458;2024-03-07T10:40:44;9.10;99.90
25112;DHT22;13092;51.996;4.458;2024-03-07T10:43:25;9.00;99.90
25112;DHT22;13092;51.996;4.458;2024-03-07T10:46:02;9.00;99.90
25112;DHT22;13092;51.996;4.458;2024-03-07T10:48:39;8.90;99.90
25112;DHT22;13092;51.996;4.458;2024-03-07T10:51:18;9.00;99.90
25112;DHT22;13092;51.996;4.458;2024-03-07T10:53:57;8.90;99.90
25112;DHT22;13092;51.996;4.458;2024-03-07T10:56:47;8.70;99.90
25112;DHT22;13092;51.996;4.458;2024-03-07T10:59:17;9.00;99.90
25112;DHT22;13092;51.996;4.458;2024-03-07T11:01:59;9.10;99.90
25112;DHT22;13092;51.996;4.458;2024-03-07T11:04:30;9.10;99.90
25112;DHT22;13092;51.996;4.458;2024-03-07T11:07:01;9.20;99.90
25112;DHT22;13092;51.996;4.458;2024-03-07T11:09:30;9.50;99.90
25112;DHT22;13092;51.996;4.458;2024-03-07T11:12:03;9.30;99.90
25112;DHT22;13092;51.996;4.458;2024-03-07T11:14:34;9.20;99.90
25112;DHT22;13092;51.996;4.458;2024-03-07T11:17:04;9.30;99.90
25112;DHT22;13092;51.996;4.458;2024-03-07T11:19:33;9.40;99.90
25112;DHT22;13092;51.996;4.458;2024-03-07T11:22:06;9.50;99.90
25112;DHT22;13092;51.996;4.458;2024-03-07T11:24:43;9.40;99.90
25112;DHT22;13092;51.996;4.458;2024-03-07T11:27:14;9.50;99.90
25112;DHT22;13092;51.996;4.458;2024-03-07T11:29:47;9.50;99.90
25112;DHT22;13092;51.996;4.458;2024-03-07T11:32:21;9.60;99.90
25112;DHT22;13092;51.996;4.458;2024-03-07T11:34:53;9.60;99.90
25112;DHT22;13092;51.996;4.458;2024-03-07T11:37:37;9.90;99.90
25112;DHT22;13092;51.996;4.458;2024-03-07T11:40:09;9.80;99.90
25112;DHT22;13092;51.996;4.458;2024-03-07T11:42:48;9.80;99.90
25112;DHT22;13092;51.996;4.458;2024-03-07T11:45:18;9.90;99.90
25112;DHT22;13092;51.996;4.458;2024-03-07T11:47:54;10.00;99.90
25112;DHT22;13092;51.996;4.458;2024-03-07T11:50:29;9.80;99.90
25112;DHT22;13092;51.996;4.458;2024-03-07T11:53:03;9.80;99.90
25112;DHT22;13092;51.996;4.458;2024-03-07T11:55:35;9.80;99.90
25112;DHT22;13092;51.996;4.458;2024-03-07T11:58:16;9.80;99.90
25112;DHT22;13092;51.996;4.458;2024-03-07T12:00:50;9.90;96.60
25112;DHT22;13092;51.996;4.458;2024-03-07T12:03:21;10.10;99.90
25112;DHT22;13092;51.996;4.458;2024-03-07T12:05:52;10.00;99.60
25112;DHT22;13092;51.996;4.458;2024-03-07T12:08:23;10.10;98.10
25112;DHT22;13092;51.996;4.458;2024-03-07T12:10:53;10.10;93.30
25112;DHT22;13092;51.996;4.458;2024-03-07T12:13:29;10.00;97.20
25112;DHT22;13092;51.996;4.458;2024-03-07T12:15:59;10.20;95.50
25112;DHT22;13092;51.996;4.458;2024-03-07T12:18:42;10.30;97.60
25112;DHT22;13092;51.996;4.458;2024-03-07T12:21:13;10.60;95.10
25112;DHT22;13092;51.996;4.458;2024-03-07T12:23:42;10.50;96.40
25112;DHT22;13092;51.996;4.458;2024-03-07T12:26:10;10.60;90.10
25112;DHT22;13092;51.996;4.458;2024-03-07T12:28:45;10.60;90.00
25112;DHT22;13092;51.996;4.458;2024-03-07T12:31:14;10.80;68.60
25112;DHT22;13092;51.996;4.458;2024-03-07T12:33:44;10.60;59.90
25112;DHT22;13092;51.996;4.458;2024-03-07T12:36:19;10.70;75.70
25112;DHT22;13092;51.996;4.458;2024-03-07T12:38:53;10.70;54.80
25112;DHT22;13092;51.996;4.458;2024-03-07T12:41:22;10.70;46.90
25112;DHT22;13092;51.996;4.458;2024-03-07T12:43:52;10.80;50.40
25112;DHT22;13092;51.996;4.458;2024-03-07T12:46:21;10.80;37.40
25112;DHT22;13092;51.996;4.458;2024-03-07T12:48:49;10.80;67.70
25112;DHT22;13092;51.996;4.458;2024-03-07T12:51:18;10.90;64.30
25112;DHT22;13092;51.996;4.458;2024-03-07T12:53:49;10.90;58.40
25112;DHT22;13092;51.996;4.458;2024-03-07T12:56:18;10.80;54.50
25112;DHT22;13092;51.996;4.458;2024-03-07T12:58:47;10.80;48.80
25112;DHT22;13092;51.996;4.458;2024-03-07T13:01:19;10.60;69.60
25112;DHT22;13092;51.996;4.458;2024-03-07T13:03:48;10.60;72.60
25112;DHT22;13092;51.996;4.458;2024-03-07T13:06:20;10.70;83.70
25112;DHT22;13092;51.996;4.458;2024-03-07T13:08:53;10.80;69.20
25112;DHT22;13092;51.996;4.458;2024-03-07T13:11:23;10.70;64.50
25112;DHT22;13092;51.996;4.458;2024-03-07T13:13:54;10.80;58.00
25112;DHT22;13092;51.996;4.458;2024-03-07T13:16:24;10.70;65.10
25112;DHT22;13092;51.996;4.458;2024-03-07T13:18:58;10.80;67.90
25112;DHT22;13092;51.996;4.458;2024-03-07T13:21:26;11.00;70.10
25112;DHT22;13092;51.996;4.458;2024-03-07T13:23:54;11.10;79.90
25112;DHT22;13092;51.996;4.458;2024-03-07T13:26:24;10.90;74.20
25112;DHT22;13092;51.996;4.458;2024-03-07T13:28:57;10.90;59.30
25112;DHT22;13092;51.996;4.458;2024-03-07T13:31:29;10.80;61.70
25112;DHT22;13092;51.996;4.458;2024-03-07T13:33:58;11.10;64.80
25112;DHT22;13092;51.996;4.458;2024-03-07T13:36:29;10.80;74.30
25112;DHT22;13092;51.996;4.458;2024-03-07T13:38:57;10.80;69.60
25112;DHT22;13092;51.996;4.458;2024-03-07T13:41:26;10.80;73.90
25112;DHT22;13092;51.996;4.458;2024-03-07T13:43:56;10.90;75.80
25112;DHT22;13092;51.996;4.458;2024-03-07T13:46:26;10.90;69.40
25112;DHT22;13092;51.996;4.458;2024-03-07T13:48:57;10.80;82.90
25112;DHT22;13092;51.996;4.458;2024-03-07T13:51:34;11.10;82.60
25112;DHT22;13092;51.996;4.458;2024-03-07T13:54:03;11.10;90.80
25112;DHT22;13092;51.996;4.458;2024-03-07T13:57:03;11.30;69.80
25112;DHT22;13092;51.996;4.458;2024-03-07T13:59:54;11.40;70.10
25112;DHT22;13092;51.996;4.458;2024-03-07T14:02:42;11.50;51.80
25112;DHT22;13092;51.996;4.458;2024-03-07T14:05:58;11.30;56.60
25112;DHT22;13092;51.996;4.458;2024-03-07T14:09:13;11.40;68.00
25112;DHT22;13092;51.996;4.458;2024-03-07T14:12:16;11.40;72.50
25112;DHT22;13092;51.996;4.458;2024-03-07T14:15:18;11.30;80.70
25112;DHT22;13092;51.996;4.458;2024-03-07T14:18:29;11.30;88.10
25112;DHT22;13092;51.996;4.458;2024-03-07T14:21:43;11.20;75.80
25112;DHT22;13092;51.996;4.458;2024-03-07T14:25:00;11.20;69.40
25112;DHT22;13092;51.996;4.458;2024-03-07T14:27:34;11.10;78.40
25112;DHT22;13092;51.996;4.458;2024-03-07T14:30:19;11.10;88.40
25112;DHT22;13092;51.996;4.458;2024-03-07T14:32:50;11.10;89.90
25112;DHT22;13092;51.996;4.458;2024-03-07T14:35:24;11.10;94.10
25112;DHT22;13092;51.996;4.458;2024-03-07T14:38:06;11.20;93.60
25112;DHT22;13092;51.996;4.458;2024-03-07T14:40:51;11.40;95.70
25112;DHT22;13092;51.996;4.458;2024-03-07T14:43:20;11.00;90.10
25112;DHT22;13092;51.996;4.458;2024-03-07T14:45:49;11.10;88.00
25112;DHT22;13092;51.996;4.458;2024-03-07T14:48:22;11.10;86.90
25112;DHT22;13092;51.996;4.458;2024-03-07T14:50:51;11.10;84.90
25112;DHT22;13092;51.996;4.458;2024-03-07T14:53:21;11.10;94.40
25112;DHT22;13092;51.996;4.458;2024-03-07T14:55:50;10.90;94.80
25112;DHT22;13092;51.996;4.458;2024-03-07T14:58:19;11.10;98.40
25112;DHT22;13092;51.996;4.458;2024-03-07T15:00:47;10.90;91.70
25112;DHT22;13092;51.996;4.458;2024-03-07T15:03:25;10.80;91.40
25112;DHT22;13092;51.996;4.458;2024-03-07T15:05:56;10.90;95.50
25112;DHT22;13092;51.996;4.458;2024-03-07T15:08:27;10.80;98.90
25112;DHT22;13092;51.996;4.458;2024-03-07T15:10:59;10.60;97.60
25112;DHT22;13092;51.996;4.458;2024-03-07T15:13:30;10.60;99.90
25112;DHT22;13092;51.996;4.458;2024-03-07T15:15:58;10.60;99.90
25112;DHT22;13092;51.996;4.458;2024-03-07T15:18:27;10.50;99.90
25112;DHT22;13092;51.996;4.458;2024-03-07T15:20:55;10.60;99.90
25112;DHT22;13092;51.996;4.458;2024-03-07T15:23:23;10.50;99.90
25112;DHT22;13092;51.996;4.458;2024-03-07T15:25:53;10.60;99.90
25112;DHT22;13092;51.996;4.458;2024-03-07T15:28:21;10.70;99.90
25112;DHT22;13092;51.996;4.458;2024-03-07T15:30:51;10.80;99.90
25112;DHT22;13092;51.996;4.458;2024-03-07T15:33:19;10.90;99.90
25112;DHT22;13092;51.996;4.458;2024-03-07T15:35:49;10.90;98.00
25112;DHT22;13092;51.996;4.458;2024-03-07T15:38:19;10.90;97.60
25112;DHT22;13092;51.996;4.458;2024-03-07T15:40:47;10.90;96.40
25112;DHT22;13092;51.996;4.458;2024-03-07T15:43:18;11.00;97.30
25112;DHT22;13092;51.996;4.458;2024-03-07T15:45:46;11.00;99.50
25112;DHT22;13092;51.996;4.458;2024-03-07T15:48:17;11.10;99.90
25112;DHT22;13092;51.996;4.458;2024-03-07T15:50:50;11.00;99.90
25112;DHT22;13092;51.996;4.458;2024-03-07T15:53:19;11.10;99.90
25112;DHT22;13092;51.996;4.458;2024-03-07T15:55:47;11.10;99.90
25112;DHT22;13092;51.996;4.458;2024-03-07T15:58:18;11.40;99.90
25112;DHT22;13092;51.996;4.458;2024-03-07T16:00:46;11.30;99.90
25112;DHT22;13092;51.996;4.458;2024-03-07T16:03:16;11.20;99.90
25112;DHT22;13092;51.996;4.458;2024-03-07T16:05:58;11.20;99.90
25112;DHT22;13092;51.996;4.458;2024-03-07T16:08:28;11.00;99.90
25112;DHT22;13092;51.996;4.458;2024-03-07T16:10:56;10.90;99.90